Terminal Aerodrome Forecast
Issued by NWS

Home | Current Version | Previous Version | Text Only | Print | Product List | Glossary On
Versions: 1 2 3 4 5 6 7 8 9 10 11 12 13 14 15
000
FTUS44 KBMX 292336
TAFEET
TAF
KEET 292336Z 3000/3024 17009KT P6SM SKC
     FM300700 16006KT P6SM OVC015
     FM301100 20006KT 4SM -RA OVC005
     FM301200 22006KT 3SM RA VCTS OVC005CB
     FM301400 30005KT P6SM OVC015=

USA.gov is the U.S. government's official web portal to all federal, state and local government web resources and services.